| time (UTC) | temp C | wind direction | speed KPH | gust KPH | rain 1hr cm | rain 24hr cm | rain mn cm | humidity % | barometer mb |
| 20260507064931 | 10 | 19 | 1.6 | 1.6 | 0.00 | 0.00 | 0.00 | 99 | 1019.7 |
| 20260507064429 | 10 | 322 | 3.2 | 3.2 | 0.00 | 0.00 | 0.00 | 99 | 1019.9 |
| 20260507063927 | 10 | 350 | 1.6 | 1.6 | 0.00 | 0.00 | 0.00 | 99 | 1020.0 |
| 20260507063423 | 10 | 185 | 3.2 | 3.2 | 0.00 | 0.00 | 0.00 | 99 | 1019.9 |
| 20260507062920 | 10 | 288 | 3.2 | 3.2 | 0.00 | 0.00 | 0.00 | 99 | 1019.8 |
| 20260507062417 | 10 | 233 | 6.4 | 8.0 | 0.00 | 0.00 | 0.00 | 99 | 1019.7 |
| 20260507061915 | 10 | 20 | 1.6 | 3.2 | 0.00 | 0.00 | 0.00 | 99 | 1020.0 |
| 20260507061413 | 10 | 349 | 0.0 | 1.6 | 0.00 | 0.00 | 0.00 | 99 | 1020.0 |
| 20260507060911 | 10 | 357 | 1.6 | 1.6 | 0.00 | 0.00 | 0.00 | 98 | 1019.9 |
| 20260507060407 | 10 | 71 | 1.6 | 1.6 | 0.00 | 0.00 | 0.00 | 98 | 1019.9 |
| 20260507055904 | 10 | 26 | 0.0 | 0.0 | 0.00 | 0.00 | 0.00 | 98 | 1020.0 |
| 20260507055359 | 10 | 356 | 0.0 | 1.6 | 0.00 | 0.00 | 0.00 | 98 | 1020.1 |
| 20260507054856 | 11 | 14 | 0.0 | 0.0 | 0.00 | 0.00 | 0.00 | 98 | 1019.9 |
| 20260507054352 | 11 | 18 | 0.0 | 1.6 | 0.00 | 0.00 | 0.00 | 98 | 1020.0 |
| 20260507053850 | 11 | 22 | 0.0 | 0.0 | 0.00 | 0.00 | 0.00 | 98 | 1019.9 |
| 20260507053347 | 11 | 75 | 1.6 | 1.6 | 0.00 | 0.00 | 0.00 | 98 | 1019.9 |
| 20260507052846 | 11 | 38 | 0.0 | 1.6 | 0.00 | 0.00 | 0.00 | 98 | 1019.9 |
| 20260507052342 | 11 | 111 | 1.6 | 1.6 | 0.00 | 0.00 | 0.00 | 98 | 1019.9 |
| 20260507051840 | 11 | 286 | 1.6 | 3.2 | 0.00 | 0.00 | 0.00 | 97 | 1019.8 |
| 20260507051338 | 11 | 25 | 0.0 | 0.0 | 0.00 | 0.00 | 0.00 | 97 | 1020.0 |
| 20260507050834 | 11 | 9 | 1.6 | 3.2 | 0.00 | 0.00 | 0.00 | 97 | 1020.0 |
| 20260507050330 | 11 | 224 | 3.2 | 3.2 | 0.00 | 0.00 | 0.00 | 97 | 1019.8 |
| 20260507045828 | 11 | 242 | 1.6 | 3.2 | 0.00 | 0.00 | 0.00 | 97 | 1020.0 |
| 20260507045324 | 11 | 357 | 0.0 | 1.6 | 0.00 | 0.00 | 0.00 | 97 | 1020.1 |
| 20260507044821 | 11 | 23 | 0.0 | 1.6 | 0.00 | 0.00 | 0.00 | 97 | 1020.0 |
| 20260507044318 | 11 | 310 | 3.2 | 3.2 | 0.00 | 0.00 | 0.00 | 96 | 1019.8 |
| 20260507043814 | 11 | 357 | 1.6 | 1.6 | 0.00 | 0.00 | 0.00 | 96 | 1020.0 |
| 20260507043310 | 11 | 20 | 0.0 | 1.6 | 0.00 | 0.00 | 0.00 | 96 | 1020.1 |
| 20260507042807 | 11 | 7 | 0.0 | 1.6 | 0.00 | 0.00 | 0.00 | 96 | 1019.8 |
| 20260507042306 | 11 | 319 | 3.2 | 3.2 | 0.00 | 0.00 | 0.00 | 96 | 1019.9 |
| 20260507041800 | 11 | 20 | 0.0 | 1.6 | 0.00 | 0.00 | 0.00 | 96 | 1019.9 |
| 20260507041256 | 11 | 198 | 3.2 | 3.2 | 0.00 | 0.00 | 0.00 | 96 | 1019.9 |
| 20260507040753 | 11 | 4 | 1.6 | 3.2 | 0.00 | 0.00 | 0.00 | 96 | 1019.8 |
| 20260507040249 | 11 | 84 | 1.6 | 3.2 | 0.00 | 0.00 | 0.00 | 96 | 1019.9 |
| 20260507035745 | 11 | 28 | 1.6 | 1.6 | 0.00 | 0.00 | 0.00 | 96 | 1019.9 |
| 20260507035241 | 11 | 18 | 0.0 | 1.6 | 0.00 | 0.00 | 0.00 | 95 | 1019.7 |
| 20260507034738 | 11 | 17 | 1.6 | 1.6 | 0.00 | 0.00 | 0.00 | 95 | 1019.7 |
| 20260507034235 | 11 | 24 | 0.0 | 1.6 | 0.00 | 0.00 | 0.00 | 95 | 1019.7 |
| 20260507033728 | 11 | 322 | 3.2 | 3.2 | 0.00 | 0.00 | 0.00 | 95 | 1019.6 |
| 20260507033225 | 11 | 307 | 3.2 | 3.2 | 0.00 | 0.00 | 0.00 | 94 | 1019.4 |
| 20260507032722 | 11 | 183 | 3.2 | 3.2 | 0.00 | 0.00 | 0.00 | 94 | 1019.5 |
| 20260507032217 | 11 | 57 | 1.6 | 3.2 | 0.00 | 0.00 | 0.00 | 93 | 1019.6 |
| 20260507031709 | 12 | 83 | 1.6 | 3.2 | 0.00 | 0.00 | 0.00 | 92 | 1019.5 |
| 20260507031205 | 12 | 135 | 1.6 | 1.6 | 0.00 | 0.00 | 0.00 | 91 | 1019.7 |
| 20260507030702 | 12 | 337 | 1.6 | 3.2 | 0.00 | 0.00 | 0.00 | 91 | 1019.5 |
| 20260507030200 | 12 | 253 | 9.7 | 11.3 | 0.00 | 0.00 | 0.00 | 90 | 1019.5 |
| 20260507025657 | 12 | 65 | 0.0 | 0.0 | 0.00 | 0.00 | 0.00 | 90 | 1019.6 |
| 20260507025148 | 12 | 23 | 4.8 | 4.8 | 0.00 | 0.00 | 0.00 | 90 | 1019.4 |
| 20260507024646 | 12 | 180 | 3.2 | 3.2 | 0.00 | 0.00 | 0.00 | 90 | 1019.5 |
| 20260507024143 | 12 | 335 | 1.6 | 3.2 | 0.00 | 0.00 | 0.00 | 89 | 1019.2 |
| 20260507023639 | 12 | 266 | 4.8 | 4.8 | 0.00 | 0.00 | 0.00 | 89 | 1019.4 |
| 20260507023137 | 12 | 61 | 1.6 | 1.6 | 0.00 | 0.00 | 0.00 | 89 | 1019.2 |
| 20260507022633 | 12 | 246 | 9.7 | 11.3 | 0.00 | 0.00 | 0.00 | 89 | 1019.3 |
| 20260507022129 | 12 | 30 | 1.6 | 1.6 | 0.00 | 0.00 | 0.00 | 88 | 1019.2 |
| 20260507021625 | 12 | 262 | 6.4 | 8.0 | 0.00 | 0.00 | 0.00 | 88 | 1019.2 |
| 20260507021121 | 12 | 207 | 3.2 | 3.2 | 0.00 | 0.00 | 0.00 | 87 | 1019.3 |
| 20260507020619 | 12 | 307 | 1.6 | 3.2 | 0.00 | 0.00 | 0.00 | 87 | 1019.1 |
| 20260507020115 | 13 | 163 | 3.2 | 4.8 | 0.00 | 0.00 | 0.00 | 86 | 1018.9 |
| 20260507015614 | 13 | 35 | 3.2 | 3.2 | 0.00 | 0.00 | 0.00 | 86 | 1019.1 |
| 20260507015111 | 13 | 273 | 3.2 | 3.2 | 0.00 | 0.00 | 0.00 | 86 | 1019.1 |
| 20260507014607 | 13 | 8 | 1.6 | 3.2 | 0.00 | 0.00 | 0.00 | 86 | 1019.0 |
| 20260507014103 | 13 | 287 | 3.2 | 3.2 | 0.00 | 0.00 | 0.00 | 85 | 1019.2 |
| 20260507013600 | 13 | 239 | 1.6 | 1.6 | 0.00 | 0.00 | 0.00 | 86 | 1019.0 |
| 20260507013057 | 13 | 357 | 1.6 | 1.6 | 0.00 | 0.00 | 0.00 | 86 | 1019.0 |
| 20260507012554 | 13 | 248 | 4.8 | 8.0 | 0.00 | 0.00 | 0.00 | 85 | 1019.0 |
| 20260507012050 | 13 | 284 | 6.4 | 8.0 | 0.00 | 0.00 | 0.00 | 85 | 1019.0 |
| 20260507011547 | 13 | 202 | 6.4 | 8.0 | 0.00 | 0.00 | 0.00 | 84 | 1019.2 |
| 20260507011038 | 13 | 76 | 3.2 | 4.8 | 0.00 | 0.00 | 0.00 | 84 | 1019.2 |
| 20260507010532 | 13 | 226 | 3.2 | 3.2 | 0.00 | 0.00 | 0.00 | 85 | 1019.3 |
| 20260507010029 | 13 | 209 | 4.8 | 4.8 | 0.00 | 0.00 | 0.00 | 84 | 1019.4 |
| 20260507005527 | 13 | 212 | 6.4 | 8.0 | 0.00 | 0.00 | 0.00 | 84 | 1019.2 |
| 20260507005023 | 13 | 77 | 1.6 | 1.6 | 0.00 | 0.00 | 0.00 | 85 | 1019.3 |
| 20260507004520 | 13 | 285 | 4.8 | 4.8 | 0.00 | 0.00 | 0.00 | 85 | 1019.4 |
| 20260507004018 | 13 | 11 | 1.6 | 1.6 | 0.00 | 0.00 | 0.00 | 84 | 1019.2 |
| 20260507003513 | 13 | 158 | 4.8 | 8.0 | 0.00 | 0.00 | 0.00 | 84 | 1019.2 |
| 20260507003008 | 13 | 249 | 8.0 | 9.7 | 0.00 | 0.00 | 0.00 | 83 | 1019.1 |
| 20260507002505 | 13 | 257 | 1.6 | 3.2 | 0.00 | 0.00 | 0.00 | 83 | 1019.4 |
| 20260507002001 | 13 | 256 | 4.8 | 4.8 | 0.00 | 0.00 | 0.00 | 85 | 1019.2 |
| 20260507001458 | 13 | 243 | 6.4 | 8.0 | 0.00 | 0.00 | 0.00 | 84 | 1018.9 |
| 20260507000955 | 13 | 308 | 1.6 | 1.6 | 0.00 | 0.00 | 0.00 | 85 | 1019.0 |
| 20260507000451 | 13 | 31 | 0.0 | 1.6 | 0.00 | 0.00 | 0.00 | 86 | 1019.2 |
| 20260506235946 | 13 | 286 | 3.2 | 4.8 | 0.00 | 0.00 | 0.00 | 84 | 1019.2 |
| 20260506235444 | 13 | 17 | 1.6 | 1.6 | 0.00 | 0.00 | 0.00 | 85 | 1019.1 |
| 20260506234940 | 13 | 160 | 4.8 | 4.8 | 0.00 | 0.00 | 0.00 | 85 | 1019.1 |
| 20260506234438 | 13 | 33 | 0.0 | 1.6 | 0.00 | 0.00 | 0.00 | 85 | 1019.2 |
| 20260506233935 | 13 | 236 | 8.0 | 9.7 | 0.00 | 0.00 | 0.00 | 86 | 1019.1 |
| 20260506233431 | 13 | 38 | 3.2 | 4.8 | 0.00 | 0.00 | 0.00 | 85 | 1019.5 |
| 20260506232928 | 13 | 140 | 3.2 | 4.8 | 0.00 | 0.00 | 0.00 | 85 | 1019.3 |
| 20260506232424 | 13 | 288 | 3.2 | 3.2 | 0.00 | 0.00 | 0.00 | 85 | 1019.3 |
| 20260506231920 | 13 | 231 | 8.0 | 9.7 | 0.00 | 0.00 | 0.00 | 84 | 1019.1 |
| 20260506231418 | 13 | 311 | 1.6 | 1.6 | 0.00 | 0.00 | 0.00 | 85 | 1019.4 |
| 20260506230915 | 13 | 248 | 4.8 | 8.0 | 0.00 | 0.00 | 0.00 | 85 | 1019.5 |
| 20260506230411 | 13 | 108 | 3.2 | 3.2 | 0.00 | 0.00 | 0.00 | 86 | 1019.5 |
| 20260506225908 | 13 | 51 | 8.0 | 9.7 | 0.00 | 0.00 | 0.00 | 86 | 1019.4 |
| 20260506225405 | 13 | 269 | 3.2 | 3.2 | 0.00 | 0.00 | 0.00 | 86 | 1019.3 |
| 20260506224902 | 13 | 269 | 3.2 | 3.2 | 0.00 | 0.00 | 0.00 | 85 | 1019.5 |
| 20260506224400 | 13 | 40 | 3.2 | 8.0 | 0.00 | 0.00 | 0.00 | 86 | 1019.4 |
| 20260506223855 | 12 | 256 | 6.4 | 9.7 | 0.00 | 0.00 | 0.00 | 86 | 1019.5 |
| 20260506223351 | 13 | 127 | 3.2 | 3.2 | 0.00 | 0.00 | 0.00 | 85 | 1019.5 |
| 20260506222848 | 13 | 47 | 1.6 | 3.2 | 0.00 | 0.00 | 0.00 | 84 | 1019.5 |
| 20260506222344 | 13 | 260 | 1.6 | 1.6 | 0.00 | 0.00 | 0.00 | 85 | 1019.3 |
| 20260506221842 | 13 | 338 | 3.2 | 3.2 | 0.00 | 0.00 | 0.00 | 85 | 1019.6 |
| 20260506221339 | 12 | 243 | 11.3 | 12.9 | 0.00 | 0.00 | 0.00 | 85 | 1019.7 |
| 20260506220837 | 12 | 242 | 4.8 | 8.0 | 0.00 | 0.00 | 0.00 | 86 | 1019.6 |
| 20260506220332 | 12 | 230 | 4.8 | 4.8 | 0.00 | 0.00 | 0.00 | 85 | 1019.5 |
| 20260506215829 | 12 | 251 | 4.8 | 4.8 | 0.00 | 0.00 | 0.00 | 86 | 1019.6 |
| 20260506215325 | 12 | 37 | 3.2 | 4.8 | 0.00 | 0.00 | 0.00 | 85 | 1019.9 |
| 20260506214821 | 13 | 344 | 1.6 | 1.6 | 0.00 | 0.00 | 0.00 | 85 | 1019.7 |
| 20260506214317 | 12 | 222 | 6.4 | 9.7 | 0.00 | 0.00 | 0.00 | 85 | 1019.6 |
| 20260506213816 | 12 | 193 | 4.8 | 4.8 | 0.00 | 0.00 | 0.00 | 85 | 1019.6 |
| 20260506213313 | 12 | 243 | 9.7 | 11.3 | 0.00 | 0.00 | 0.00 | 86 | 1019.6 |
| 20260506212810 | 12 | 13 | 3.2 | 4.8 | 0.00 | 0.00 | 0.00 | 85 | 1019.6 |
| 20260506212307 | 12 | 248 | 8.0 | 8.0 | 0.00 | 0.00 | 0.00 | 85 | 1019.6 |
| 20260506211801 | 12 | 192 | 6.4 | 9.7 | 0.00 | 0.00 | 0.00 | 85 | 1019.7 |
| 20260506211257 | 12 | 345 | 1.6 | 3.2 | 0.00 | 0.00 | 0.00 | 85 | 1019.7 |
| 20260506210755 | 12 | 60 | 4.8 | 4.8 | 0.00 | 0.00 | 0.00 | 84 | 1019.7 |
| 20260506210251 | 12 | 0 | 3.2 | 3.2 | 0.00 | 0.00 | 0.00 | 85 | 1019.7 |
| 20260506205748 | 12 | 349 | 4.8 | 8.0 | 0.00 | 0.00 | 0.00 | 85 | 1019.7 |
| 20260506205244 | 12 | 201 | 3.2 | 4.8 | 0.00 | 0.00 | 0.00 | 85 | 1019.5 |
| 20260506204741 | 12 | 324 | 8.0 | 11.3 | 0.00 | 0.00 | 0.00 | 83 | 1019.5 |
| 20260506204239 | 12 | 0 | 0.0 | 1.6 | 0.00 | 0.00 | 0.00 | 85 | 1019.8 |
| 20260506203736 | 12 | 117 | 3.2 | 4.8 | 0.00 | 0.00 | 0.00 | 85 | 1019.6 |
| 20260506203233 | 12 | 234 | 4.8 | 4.8 | 0.00 | 0.00 | 0.00 | 84 | 1019.4 |
| 20260506202731 | 12 | 262 | 6.4 | 9.7 | 0.00 | 0.00 | 0.00 | 84 | 1019.4 |
| 20260506202227 | 12 | 352 | 1.6 | 3.2 | 0.00 | 0.00 | 0.00 | 85 | 1019.5 |
| 20260506201724 | 12 | 197 | 6.4 | 9.7 | 0.00 | 0.00 | 0.00 | 84 | 1019.5 |
| 20260506201220 | 12 | 29 | 1.6 | 1.6 | 0.00 | 0.00 | 0.00 | 84 | 1019.6 |
| 20260506200717 | 12 | 82 | 8.0 | 9.7 | 0.00 | 0.00 | 0.00 | 84 | 1019.4 |
| 20260506200208 | 12 | 222 | 8.0 | 16.1 | 0.00 | 0.00 | 0.00 | 85 | 1019.4 |
| 20260506195659 | 12 | 195 | 3.2 | 3.2 | 0.00 | 0.00 | 0.00 | 85 | 1019.6 |
| 20260506195155 | 12 | 240 | 8.0 | 11.3 | 0.00 | 0.00 | 0.00 | 84 | 1019.3 |
| 20260506194653 | 12 | 238 | 4.8 | 4.8 | 0.00 | 0.00 | 0.00 | 84 | 1019.4 |
| 20260506194149 | 12 | 224 | 6.4 | 9.7 | 0.00 | 0.00 | 0.00 | 83 | 1019.4 |
| 20260506193647 | 12 | 198 | 3.2 | 4.8 | 0.00 | 0.00 | 0.00 | 84 | 1019.6 |
| 20260506193144 | 12 | 220 | 6.4 | 8.0 | 0.00 | 0.00 | 0.00 | 85 | 1019.5 |
| 20260506192640 | 12 | 282 | 8.0 | 11.3 | 0.00 | 0.00 | 0.00 | 84 | 1019.5 |
| 20260506192137 | 12 | 247 | 6.4 | 8.0 | 0.00 | 0.00 | 0.00 | 84 | 1019.4 |
| 20260506191634 | 12 | 223 | 14.5 | 16.1 | 0.00 | 0.00 | 0.00 | 84 | 1019.3 |
| 20260506191130 | 12 | 297 | 6.4 | 8.0 | 0.00 | 0.00 | 0.00 | 85 | 1019.3 |
| 20260506190627 | 12 | 175 | 6.4 | 8.0 | 0.00 | 0.00 | 0.00 | 84 | 1019.3 |
| 20260506190124 | 12 | 305 | 6.4 | 8.0 | 0.00 | 0.00 | 0.00 | 85 | 1019.3 |
| 20260506185621 | 12 | 233 | 11.3 | 14.5 | 0.00 | 0.00 | 0.00 | 84 | 1019.1 |
| 20260506185117 | 12 | 243 | 11.3 | 17.7 | 0.00 | 0.00 | 0.00 | 84 | 1019.2 |
| 20260506184615 | 11 | 355 | 1.6 | 1.6 | 0.00 | 0.00 | 0.00 | 86 | 1019.3 |
| 20260506184112 | 11 | 215 | 8.0 | 11.3 | 0.00 | 0.00 | 0.00 | 86 | 1019.4 |
| 20260506183608 | 11 | 201 | 9.7 | 11.3 | 0.00 | 0.00 | 0.00 | 86 | 1019.3 |
| 20260506183104 | 11 | 219 | 4.8 | 8.0 | 0.00 | 0.00 | 0.00 | 86 | 1019.3 |
| 20260506182601 | 11 | 231 | 4.8 | 4.8 | 0.00 | 0.00 | 0.00 | 87 | 1019.4 |
| 20260506182053 | 11 | 236 | 6.4 | 11.3 | 0.00 | 0.00 | 0.00 | 86 | 1019.3 |
| 20260506181551 | 11 | 226 | 3.2 | 4.8 | 0.00 | 0.00 | 0.00 | 87 | 1019.3 |
| 20260506181047 | 11 | 250 | 16.1 | 20.9 | 0.00 | 0.00 | 0.00 | 86 | 1019.1 |
| 20260506180544 | 11 | 197 | 6.4 | 8.0 | 0.00 | 0.00 | 0.00 | 87 | 1019.1 |
| 20260506180041 | 11 | 241 | 11.3 | 11.3 | 0.00 | 0.00 | 0.00 | 87 | 1019.1 |
| 20260506175537 | 11 | 300 | 4.8 | 4.8 | 0.00 | 0.00 | 0.00 | 87 | 1018.9 |
| 20260506175034 | 11 | 239 | 11.3 | 14.5 | 0.00 | 0.00 | 0.00 | 88 | 1019.1 |
| 20260506174533 | 11 | 258 | 6.4 | 8.0 | 0.00 | 0.00 | 0.00 | 89 | 1019.1 |
| 20260506174028 | 11 | 3 | 1.6 | 1.6 | 0.00 | 0.00 | 0.00 | 90 | 1018.9 |
| 20260506173526 | 11 | 263 | 16.1 | 17.7 | 0.00 | 0.00 | 0.00 | 89 | 1019.0 |
| 20260506173023 | 11 | 238 | 12.9 | 16.1 | 0.00 | 0.00 | 0.00 | 90 | 1018.8 |
| 20260506172520 | 11 | 240 | 8.0 | 12.9 | 0.00 | 0.00 | 0.00 | 92 | 1019.0 |
| 20260506172016 | 11 | 223 | 8.0 | 9.7 | 0.00 | 0.00 | 0.00 | 92 | 1019.1 |
| 20260506171514 | 11 | 256 | 11.3 | 14.5 | 0.00 | 0.00 | 0.00 | 93 | 1018.9 |
| 20260506171010 | 11 | 203 | 6.4 | 11.3 | 0.00 | 0.00 | 0.00 | 93 | 1019.0 |
| 20260506170507 | 10 | 256 | 9.7 | 11.3 | 0.00 | 0.00 | 0.00 | 94 | 1018.9 |
| 20260506170000 | 10 | 153 | 6.4 | 9.7 | 0.00 | 0.00 | 0.00 | 94 | 1018.9 |
| 20260506165459 | 10 | 258 | 6.4 | 8.0 | 0.00 | 0.00 | 0.00 | 95 | 1019.1 |
| 20260506164954 | 10 | 205 | 3.2 | 3.2 | 0.00 | 0.00 | 0.00 | 96 | 1018.8 |
| 20260506164451 | 10 | 216 | 3.2 | 3.2 | 0.00 | 0.00 | 0.00 | 97 | 1019.0 |
| 20260506163949 | 10 | 268 | 6.4 | 9.7 | 0.00 | 0.00 | 0.00 | 98 | 1019.0 |
| 20260506163444 | 10 | 275 | 4.8 | 8.0 | 0.00 | 0.00 | 0.00 | 98 | 1019.0 |
| 20260506162939 | 10 | 209 | 6.4 | 11.3 | 0.00 | 0.00 | 0.00 | 98 | 1018.9 |
| 20260506162437 | 10 | 257 | 3.2 | 4.8 | 0.00 | 0.00 | 0.00 | 99 | 1019.0 |
| 20260506161934 | 10 | 256 | 11.3 | 11.3 | 0.00 | 0.00 | 0.00 | 99 | 1018.9 |
| 20260506161431 | 10 | 267 | 3.2 | 3.2 | 0.00 | 0.00 | 0.00 | 99 | 1018.7 |
| 20260506160923 | 10 | 255 | 3.2 | 4.8 | 0.00 | 0.00 | 0.00 | 99 | 1018.5 |
| 20260506160420 | 10 | 23 | 8.0 | 11.3 | 0.00 | 0.00 | 0.00 | 99 | 1018.4 |
| 20260506155918 | 10 | 182 | 3.2 | 8.0 | 0.00 | 0.00 | 0.00 | 99 | 1018.4 |
| 20260506155414 | 10 | 179 | 8.0 | 9.7 | 0.00 | 0.00 | 0.00 | 99 | 1018.3 |
| 20260506153531 | 10 | 241 | 8.0 | 9.7 | 0.00 | 0.00 | 0.00 | 97 | 1018.5 |
| 20260506153028 | 10 | 239 | 6.4 | 8.0 | 0.00 | 0.00 | 0.00 | 97 | 1018.6 |
| 20260506152525 | 10 | 272 | 1.6 | 3.2 | 0.00 | 0.00 | 0.00 | 97 | 1018.6 |
| 20260506152023 | 10 | 277 | 4.8 | 4.8 | 0.00 | 0.00 | 0.00 | 96 | 1018.8 |
| 20260506151521 | 10 | 196 | 8.0 | 9.7 | 0.00 | 0.00 | 0.00 | 96 | 1018.6 |
| 20260506151018 | 10 | 167 | 4.8 | 4.8 | 0.00 | 0.00 | 0.00 | 96 | 1018.6 |
| 20260506150514 | 10 | 228 | 11.3 | 14.5 | 0.00 | 0.00 | 0.00 | 97 | 1018.8 |
| 20260506150011 | 10 | 261 | 8.0 | 9.7 | 0.00 | 0.00 | 0.00 | 97 | 1018.6 |
| 20260506145508 | 10 | 247 | 4.8 | 8.0 | 0.00 | 0.00 | 0.00 | 97 | 1018.6 |
| 20260506145006 | 10 | 218 | 4.8 | 4.8 | 0.00 | 0.00 | 0.00 | 97 | 1018.5 |
| 20260506144502 | 11 | 111 | 4.8 | 4.8 | 0.00 | 0.00 | 0.00 | 97 | 1018.0 |
| 20260506144000 | 10 | 218 | 4.8 | 8.0 | 0.00 | 0.00 | 0.00 | 97 | 1017.9 |
| 20260506143457 | 10 | 290 | 1.6 | 1.6 | 0.00 | 0.00 | 0.00 | 98 | 1018.4 |
| 20260506142955 | 10 | 232 | 6.4 | 8.0 | 0.00 | 0.00 | 0.00 | 98 | 1018.4 |
| 20260506142453 | 10 | 335 | 3.2 | 3.2 | 0.00 | 0.00 | 0.00 | 98 | 1018.5 |
| 20260506141950 | 10 | 202 | 8.0 | 12.9 | 0.00 | 0.00 | 0.00 | 98 | 1018.4 |
| 20260506141448 | 10 | 149 | 4.8 | 9.7 | 0.00 | 0.00 | 0.00 | 98 | 1018.2 |
| 20260506140946 | 10 | 215 | 4.8 | 4.8 | 0.00 | 0.00 | 0.00 | 99 | 1018.3 |
| 20260506140443 | 10 | 117 | 1.6 | 1.6 | 0.00 | 0.00 | 0.00 | 99 | 1018.2 |
| 20260506135940 | 10 | 301 | 3.2 | 3.2 | 0.00 | 0.00 | 0.00 | 99 | 1018.2 |
| 20260506135437 | 10 | 231 | 3.2 | 3.2 | 0.00 | 0.00 | 0.00 | 99 | 1018.3 |
| 20260506134933 | 10 | 73 | 3.2 | 3.2 | 0.00 | 0.00 | 0.00 | 99 | 1018.3 |
| 20260506134429 | 10 | 34 | 1.6 | 1.6 | 0.00 | 0.00 | 0.00 | 99 | 1018.1 |
| 20260506133926 | 10 | 286 | 1.6 | 1.6 | 0.00 | 0.00 | 0.00 | 99 | 1018.1 |
| 20260506133423 | 10 | 257 | 3.2 | 3.2 | 0.00 | 0.00 | 0.00 | 99 | 1018.2 |
| 20260506132920 | 10 | 207 | 8.0 | 11.3 | 0.00 | 0.00 | 0.00 | 99 | 1017.9 |
| 20260506132417 | 10 | 236 | 4.8 | 4.8 | 0.00 | 0.00 | 0.00 | 99 | 1018.0 |
| 20260506131915 | 10 | 123 | 1.6 | 3.2 | 0.00 | 0.00 | 0.00 | 99 | 1018.0 |
| 20260506131411 | 10 | 348 | 3.2 | 3.2 | 0.00 | 0.00 | 0.00 | 99 | 1018.0 |
| 20260506130908 | 10 | 287 | 1.6 | 1.6 | 0.00 | 0.00 | 0.00 | 99 | 1018.2 |
| 20260506130404 | 10 | 22 | 1.6 | 1.6 | 0.00 | 0.00 | 0.00 | 99 | 1017.7 |
| 20260506125903 | 10 | 6 | 3.2 | 3.2 | 0.00 | 0.00 | 0.00 | 99 | 1017.7 |
| 20260506125401 | 10 | 280 | 1.6 | 1.6 | 0.00 | 0.00 | 0.00 | 99 | 1017.8 |
| 20260506124859 | 10 | 248 | 3.2 | 3.2 | 0.00 | 0.00 | 0.00 | 99 | 1017.3 |
| 20260506124355 | 10 | 312 | 3.2 | 3.2 | 0.00 | 0.00 | 0.00 | 99 | 1017.6 |
| 20260506123853 | 10 | 95 | 1.6 | 1.6 | 0.00 | 0.00 | 0.00 | 99 | 1017.7 |
| 20260506123351 | 10 | 170 | 4.8 | 8.0 | 0.00 | 0.00 | 0.00 | 99 | 1017.6 |
| 20260506122848 | 10 | 246 | 6.4 | 8.0 | 0.00 | 0.00 | 0.00 | 99 | 1017.5 |
| 20260506122345 | 10 | 303 | 3.2 | 3.2 | 0.00 | 0.00 | 0.00 | 99 | 1017.6 |
| 20260506121843 | 10 | 297 | 8.0 | 11.3 | 0.00 | 0.00 | 0.00 | 99 | 1017.6 |
| 20260506121340 | 10 | 310 | 4.8 | 8.0 | 0.00 | 0.00 | 0.00 | 98 | 1017.4 |
| 20260506120837 | 10 | 204 | 6.4 | 11.3 | 0.00 | 0.00 | 0.00 | 98 | 1017.7 |
| 20260506120335 | 10 | 104 | 1.6 | 1.6 | 0.00 | 0.00 | 0.00 | 98 | 1017.5 |
| 20260506115832 | 10 | 194 | 8.0 | 9.7 | 0.00 | 0.00 | 0.00 | 98 | 1017.5 |
| 20260506115330 | 10 | 305 | 4.8 | 4.8 | 0.00 | 0.00 | 0.00 | 98 | 1017.5 |
| 20260506114828 | 10 | 43 | 3.2 | 3.2 | 0.00 | 0.00 | 0.00 | 98 | 1017.5 |
| 20260506114325 | 10 | 240 | 8.0 | 11.3 | 0.00 | 0.00 | 0.00 | 98 | 1017.6 |
| 20260506113824 | 10 | 283 | 9.7 | 11.3 | 0.00 | 0.00 | 0.00 | 98 | 1017.6 |
| 20260506113321 | 10 | 298 | 4.8 | 4.8 | 0.00 | 0.00 | 0.00 | 98 | 1017.5 |
| 20260506112817 | 10 | 215 | 6.4 | 9.7 | 0.00 | 0.00 | 0.00 | 98 | 1017.5 |
| 20260506112315 | 10 | 320 | 3.2 | 3.2 | 0.00 | 0.00 | 0.00 | 98 | 1017.2 |
| 20260506111812 | 10 | 318 | 1.6 | 1.6 | 0.00 | 0.00 | 0.00 | 98 | 1016.9 |
| 20260506111310 | 10 | 96 | 1.6 | 1.6 | 0.00 | 0.00 | 0.00 | 98 | 1017.2 |
| 20260506110807 | 10 | 328 | 1.6 | 3.2 | 0.00 | 0.00 | 0.00 | 98 | 1017.2 |
| 20260506110304 | 10 | 121 | 3.2 | 3.2 | 0.00 | 0.00 | 0.00 | 98 | 1017.2 |
| 20260506105801 | 10 | 21 | 1.6 | 1.6 | 0.00 | 0.00 | 0.00 | 98 | 1017.3 |
| 20260506105258 | 10 | 31 | 1.6 | 1.6 | 0.00 | 0.00 | 0.00 | 98 | 1017.3 |
| 20260506104755 | 10 | 241 | 4.8 | 8.0 | 0.00 | 0.00 | 0.00 | 98 | 1017.3 |
| 20260506104253 | 10 | 7 | 1.6 | 1.6 | 0.00 | 0.00 | 0.00 | 98 | 1017.1 |
| 20260506103750 | 10 | 199 | 3.2 | 3.2 | 0.00 | 0.00 | 0.00 | 98 | 1017.0 |
| 20260506103247 | 10 | 289 | 4.8 | 4.8 | 0.00 | 0.00 | 0.00 | 98 | 1017.0 |
| 20260506102745 | 10 | 219 | 4.8 | 4.8 | 0.00 | 0.00 | 0.00 | 98 | 1017.1 |
| 20260506102243 | 10 | 4 | 1.6 | 1.6 | 0.00 | 0.00 | 0.00 | 98 | 1017.0 |
| 20260506101739 | 10 | 251 | 3.2 | 3.2 | 0.00 | 0.00 | 0.00 | 98 | 1017.0 |
| 20260506101236 | 10 | 318 | 4.8 | 4.8 | 0.00 | 0.00 | 0.00 | 98 | 1016.9 |
| 20260506100734 | 10 | 143 | 3.2 | 3.2 | 0.00 | 0.00 | 0.00 | 98 | 1017.0 |
| 20260506100232 | 10 | 324 | 1.6 | 1.6 | 0.00 | 0.00 | 0.00 | 98 | 1016.9 |
| 20260506095730 | 10 | 104 | 3.2 | 3.2 | 0.00 | 0.00 | 0.00 | 98 | 1016.9 |
| 20260506095226 | 10 | 337 | 4.8 | 4.8 | 0.00 | 0.00 | 0.00 | 98 | 1016.9 |
| 20260506094723 | 10 | 262 | 3.2 | 4.8 | 0.00 | 0.00 | 0.00 | 99 | 1016.6 |
| 20260506094222 | 10 | 281 | 6.4 | 8.0 | 0.00 | 0.00 | 0.00 | 99 | 1016.6 |
| 20260506093720 | 10 | 265 | 8.0 | 9.7 | 0.00 | 0.00 | 0.00 | 99 | 1016.5 |
| 20260506093217 | 10 | 275 | 4.8 | 4.8 | 0.00 | 0.00 | 0.00 | 99 | 1016.6 |
| 20260506092715 | 10 | 237 | 6.4 | 8.0 | 0.00 | 0.00 | 0.00 | 99 | 1016.5 |
| 20260506092212 | 10 | 287 | 6.4 | 9.7 | 0.00 | 0.00 | 0.00 | 99 | 1016.5 |
| 20260506091710 | 10 | 264 | 4.8 | 4.8 | 0.00 | 0.00 | 0.00 | 99 | 1016.6 |
| 20260506091207 | 10 | 212 | 3.2 | 3.2 | 0.00 | 0.00 | 0.00 | 99 | 1016.6 |
| 20260506090704 | 10 | 322 | 3.2 | 4.8 | 0.00 | 0.00 | 0.00 | 99 | 1016.5 |
| 20260506090201 | 10 | 245 | 4.8 | 4.8 | 0.00 | 0.00 | 0.00 | 99 | 1016.6 |
| 20260506085658 | 10 | 287 | 8.0 | 9.7 | 0.00 | 0.00 | 0.00 | 99 | 1016.3 |
| 20260506085154 | 10 | 302 | 3.2 | 4.8 | 0.00 | 0.00 | 0.00 | 99 | 1016.3 |
| 20260506084651 | 10 | 170 | 4.8 | 4.8 | 0.00 | 0.00 | 0.00 | 99 | 1016.4 |
| 20260506084147 | 10 | 291 | 4.8 | 4.8 | 0.00 | 0.00 | 0.00 | 99 | 1016.2 |
| 20260506083644 | 10 | 325 | 3.2 | 3.2 | 0.00 | 0.00 | 0.00 | 99 | 1016.2 |
| 20260506083142 | 10 | 350 | 4.8 | 8.0 | 0.00 | 0.00 | 0.00 | 99 | 1016.0 |
| 20260506082639 | 10 | 337 | 3.2 | 3.2 | 0.00 | 0.00 | 0.00 | 99 | 1016.2 |
| 20260506082134 | 10 | 345 | 1.6 | 1.6 | 0.00 | 0.00 | 0.00 | 99 | 1016.1 |
| 20260506081632 | 10 | 331 | 4.8 | 4.8 | 0.00 | 0.00 | 0.00 | 98 | 1016.0 |
| 20260506081130 | 10 | 232 | 3.2 | 4.8 | 0.00 | 0.00 | 0.00 | 99 | 1016.1 |
| 20260506080627 | 10 | 210 | 3.2 | 3.2 | 0.00 | 0.00 | 0.00 | 98 | 1015.9 |
| 20260506080124 | 10 | 145 | 1.6 | 3.2 | 0.00 | 0.00 | 0.00 | 98 | 1016.0 |
| 20260506073108 | 10 | 279 | 4.8 | 4.8 | 0.00 | 0.00 | 0.00 | 96 | 1015.9 |
| 20260506072604 | 10 | 324 | 3.2 | 3.2 | 0.00 | 0.00 | 0.00 | 96 | 1015.8 |
| 20260506072103 | 10 | 314 | 3.2 | 3.2 | 0.00 | 0.00 | 0.00 | 96 | 1015.8 |
| 20260506071600 | 11 | 229 | 3.2 | 3.2 | 0.00 | 0.00 | 0.00 | 96 | 1015.8 |
| 20260506071057 | 11 | 251 | 4.8 | 4.8 | 0.00 | 0.00 | 0.00 | 96 | 1015.6 |
| 20260506070554 | 11 | 224 | 6.4 | 9.7 | 0.00 | 0.00 | 0.00 | 95 | 1015.6 |